Time;durP1;ratioP1;P1;durP2;ratioP2;P2;SDS_P1;SDS_P2;PMS_P1;PMS_P2;Temp;Humidity;BMP_temperature;BMP_pressure;BME280_temperature;BME280_humidity;BME280_pressure;Samples;Min_cycle;Max_cycle;Signal;HPM_P1;HPM_P2
2023/04/26 00:00:23;;;;;;;11.13;2.67;;;4.20;99.90;;;;;;5004602;28;20424;-77
2023/04/26 00:02:49;;;;;;;10.63;2.57;;;4.20;99.90;;;;;;5002933;28;20922;-77
2023/04/26 00:05:15;;;;;;;11.77;2.58;;;4.20;99.90;;;;;;5006025;28;22075;-77
2023/04/26 00:07:42;;;;;;;9.50;2.45;;;4.20;99.90;;;;;;5005635;28;20862;-76
2023/04/26 00:10:09;;;;;;;9.95;2.92;;;4.20;99.90;;;;;;5003005;28;20515;-77
2023/04/26 00:12:35;;;;;;;12.38;2.50;;;4.00;99.90;;;;;;5007095;28;20463;-77
2023/04/26 00:15:02;;;;;;;9.50;2.67;;;4.10;99.90;;;;;;5005656;28;20437;-76
2023/04/26 00:17:28;;;;;;;8.68;2.17;;;4.10;99.90;;;;;;4991400;28;20435;-77
2023/04/26 00:19:56;;;;;;;8.27;1.90;;;4.10;99.90;;;;;;5005915;28;20440;-75
2023/04/26 00:22:22;;;;;;;7.82;1.85;;;4.00;99.90;;;;;;5010155;28;20478;-76
2023/04/26 00:24:48;;;;;;;8.60;2.25;;;4.10;99.90;;;;;;4998091;28;20525;-76
2023/04/26 00:27:13;;;;;;;9.40;3.00;;;4.00;99.90;;;;;;5006905;28;20905;-76
2023/04/26 00:29:39;;;;;;;9.35;2.38;;;4.00;99.90;;;;;;4994403;28;20433;-77
2023/04/26 00:32:05;;;;;;;11.35;2.80;;;4.00;99.90;;;;;;5021101;28;20515;-76
2023/04/26 00:34:35;;;;;;;8.70;2.33;;;4.00;99.90;;;;;;4998562;28;20432;-77
2023/04/26 00:37:02;;;;;;;7.47;2.60;;;4.00;99.90;;;;;;5008902;28;20415;-76
2023/04/26 00:39:27;;;;;;;8.90;2.67;;;3.90;99.90;;;;;;5007181;28;20424;-77
2023/04/26 00:41:53;;;;;;;6.03;2.63;;;3.70;99.90;;;;;;5003701;28;20462;-77
2023/04/26 00:44:19;;;;;;;6.88;2.10;;;3.70;99.90;;;;;;4995140;28;20438;-76
2023/04/26 00:46:45;;;;;;;6.27;2.30;;;3.70;99.90;;;;;;5003087;28;20462;-77
2023/04/26 00:49:15;;;;;;;9.00;2.50;;;3.70;99.90;;;;;;4994952;28;20494;-76
2023/04/26 00:51:42;;;;;;;7.40;2.67;;;3.80;99.90;;;;;;4998294;28;20512;-77
2023/04/26 00:54:09;;;;;;;7.88;2.45;;;3.60;99.90;;;;;;5004639;28;20437;-75
2023/04/26 00:56:37;;;;;;;7.67;2.40;;;3.70;99.90;;;;;;5006239;28;20959;-77
2023/04/26 00:59:03;;;;;;;10.38;3.25;;;3.80;99.90;;;;;;5004672;28;20924;-76
2023/04/26 01:01:29;;;;;;;7.47;2.50;;;3.70;99.90;;;;;;4994030;28;20418;-76
2023/04/26 01:03:55;;;;;;;7.70;2.20;;;3.70;99.90;;;;;;5005540;28;20466;-76
2023/04/26 01:06:21;;;;;;;9.05;2.67;;;3.70;99.90;;;;;;4999110;28;20429;-75
2023/04/26 01:08:50;;;;;;;8.73;2.00;;;3.80;99.90;;;;;;4999709;28;20581;-76
2023/04/26 01:11:18;;;;;;;7.43;2.35;;;3.90;99.90;;;;;;4999778;28;20420;-76
2023/04/26 01:13:45;;;;;;;4.15;1.77;;;4.00;99.90;;;;;;5005564;28;21643;-76
2023/04/26 01:16:12;;;;;;;5.88;2.25;;;4.10;99.90;;;;;;5000153;28;20510;-76
2023/04/26 01:18:38;;;;;;;7.80;2.10;;;4.10;99.90;;;;;;4984523;28;20431;-78
2023/04/26 01:21:04;;;;;;;9.38;1.98;;;4.20;99.90;;;;;;4999597;28;20424;-77
2023/04/26 01:23:30;;;;;;;11.82;2.25;;;4.30;99.90;;;;;;4987052;28;20430;-76
2023/04/26 01:25:56;;;;;;;9.85;2.40;;;4.30;99.90;;;;;;5002078;28;20422;-77
2023/04/26 01:28:22;;;;;;;6.80;2.13;;;4.30;99.90;;;;;;4997885;28;20428;-77
2023/04/26 01:30:47;;;;;;;6.93;1.70;;;4.30;99.90;;;;;;5004742;28;21155;-76
2023/04/26 01:33:14;;;;;;;10.77;2.00;;;4.30;99.90;;;;;;5010532;28;21003;-77
2023/04/26 01:35:40;;;;;;;6.20;1.70;;;4.30;99.90;;;;;;5006500;28;20425;-76
2023/04/26 01:38:07;;;;;;;12.43;2.45;;;4.20;99.90;;;;;;5004657;28;20503;-77
2023/04/26 01:40:33;;;;;;;6.07;1.70;;;4.10;99.90;;;;;;4997483;28;20422;-76
2023/04/26 01:42:59;;;;;;;6.88;2.05;;;4.20;99.90;;;;;;5000585;28;20437;-78
2023/04/26 01:45:25;;;;;;;5.38;1.63;;;4.20;99.90;;;;;;5003789;28;20540;-76
2023/04/26 01:47:51;;;;;;;6.35;2.40;;;4.10;99.90;;;;;;5004247;28;20610;-76
2023/04/26 01:50:16;;;;;;;7.13;2.03;;;4.00;99.90;;;;;;5003538;28;20412;-75
2023/04/26 01:52:42;;;;;;;8.93;2.35;;;4.00;99.90;;;;;;5003228;28;20936;-76
2023/04/26 01:55:08;;;;;;;8.80;1.70;;;3.80;99.90;;;;;;5005853;28;20763;-77
2023/04/26 01:57:33;;;;;;;8.60;1.85;;;3.80;99.90;;;;;;5005893;28;20912;-75
2023/04/26 02:00:01;;;;;;;7.90;2.57;;;3.70;99.90;;;;;;4992885;28;20501;-76
2023/04/26 02:02:27;;;;;;;4.78;1.70;;;3.70;99.90;;;;;;4997911;28;20422;-76
2023/04/26 02:04:52;;;;;;;6.97;1.88;;;3.70;99.90;;;;;;4993189;28;20441;-75
2023/04/26 02:07:18;;;;;;;6.70;2.07;;;3.70;99.90;;;;;;4996061;28;20442;-76
2023/04/26 02:09:45;;;;;;;3.65;2.03;;;3.70;99.90;;;;;;4999526;28;20475;-75
2023/04/26 02:12:11;;;;;;;6.23;2.20;;;3.70;99.90;;;;;;4990546;28;20430;-75
2023/04/26 02:14:36;;;;;;;7.82;2.55;;;3.60;99.90;;;;;;5005767;28;20832;-76
2023/04/26 02:17:03;;;;;;;6.90;2.20;;;3.60;99.90;;;;;;4991560;28;20926;-75
2023/04/26 02:19:29;;;;;;;5.03;1.65;;;3.70;99.90;;;;;;5002349;28;20837;-76
2023/04/26 02:21:56;;;;;;;6.50;1.80;;;3.60;99.90;;;;;;4998609;28;20780;-76
2023/04/26 02:24:23;;;;;;;8.10;1.80;;;3.60;99.90;;;;;;5004114;28;20432;-76
2023/04/26 02:26:49;;;;;;;5.78;1.70;;;3.70;99.90;;;;;;5003988;28;20924;-76
2023/04/26 02:29:15;;;;;;;5.82;2.00;;;3.60;99.90;;;;;;4999360;28;20480;-76
2023/04/26 02:31:40;;;;;;;7.78;2.63;;;3.60;99.90;;;;;;5005037;28;20488;-76
2023/04/26 02:34:06;;;;;;;7.78;2.70;;;3.50;99.90;;;;;;4994627;28;20428;-75
2023/04/26 02:36:32;;;;;;;7.20;2.07;;;3.40;99.90;;;;;;5001875;28;20813;-77
2023/04/26 02:38:58;;;;;;;7.23;1.80;;;3.40;99.90;;;;;;5002778;28;20426;-76
2023/04/26 02:41:24;;;;;;;7.15;2.30;;;3.40;99.90;;;;;;4976636;28;20434;-76
2023/04/26 02:43:50;;;;;;;7.07;2.07;;;3.40;99.90;;;;;;4991876;28;20600;-77
2023/04/26 02:46:16;;;;;;;6.60;2.42;;;3.40;99.90;;;;;;5007556;28;20428;-77
2023/04/26 02:48:42;;;;;;;5.63;1.80;;;3.40;99.90;;;;;;5004918;28;20786;-75
2023/04/26 02:51:07;;;;;;;7.40;2.67;;;3.20;99.90;;;;;;5001255;28;20480;-76
2023/04/26 02:53:33;;;;;;;13.10;3.83;;;3.20;99.90;;;;;;4998238;28;20797;-77
2023/04/26 02:55:59;;;;;;;7.13;2.37;;;3.30;99.90;;;;;;5007161;28;20420;-78
2023/04/26 02:58:25;;;;;;;7.97;2.20;;;3.30;99.90;;;;;;5002831;28;20427;-76
2023/04/26 03:00:53;;;;;;;9.13;2.50;;;3.30;99.90;;;;;;5000318;28;20421;-76
2023/04/26 03:03:19;;;;;;;5.80;2.10;;;3.50;99.90;;;;;;5007238;28;20542;-76
2023/04/26 03:05:45;;;;;;;10.13;2.50;;;3.60;99.90;;;;;;5004576;28;20435;-76
2023/04/26 03:08:10;;;;;;;6.35;2.42;;;3.60;99.90;;;;;;5006227;28;20917;-76
2023/04/26 03:10:36;;;;;;;6.63;2.15;;;3.70;99.90;;;;;;5006195;28;21382;-77
2023/04/26 03:13:03;;;;;;;9.68;2.72;;;3.80;99.90;;;;;;5007451;28;20448;-77
2023/04/26 03:15:29;;;;;;;7.80;2.77;;;3.80;99.90;;;;;;5006481;28;20519;-78
2023/04/26 03:17:56;;;;;;;11.27;3.03;;;3.90;99.90;;;;;;4994299;28;20570;-75
2023/04/26 03:20:26;;;;;;;7.22;2.60;;;3.90;99.90;;;;;;4997554;28;20462;-76
2023/04/26 03:22:51;;;;;;;12.68;2.05;;;3.90;99.90;;;;;;5006479;28;20428;-76
2023/04/26 03:25:17;;;;;;;6.90;2.45;;;4.00;99.90;;;;;;5005614;28;21381;-76
2023/04/26 03:27:43;;;;;;;8.65;2.45;;;4.00;99.90;;;;;;4995843;28;20485;-78
2023/04/26 03:30:09;;;;;;;6.47;1.88;;;3.90;99.90;;;;;;5002869;28;20800;-75
2023/04/26 03:32:34;;;;;;;8.43;2.05;;;3.90;99.90;;;;;;4988042;28;20787;-77
2023/04/26 03:35:00;;;;;;;11.83;2.93;;;3.80;99.90;;;;;;5003684;28;20492;-76
2023/04/26 03:37:26;;;;;;;6.50;1.97;;;3.80;99.90;;;;;;5012715;28;20519;-76
2023/04/26 03:39:52;;;;;;;9.00;2.70;;;3.80;99.90;;;;;;5015265;28;20845;-76
2023/04/26 03:42:19;;;;;;;7.93;2.22;;;3.80;99.90;;;;;;5002659;28;20436;-76
2023/04/26 03:44:45;;;;;;;10.75;2.53;;;3.80;99.90;;;;;;5005306;28;20432;-76
2023/04/26 03:47:11;;;;;;;6.20;2.55;;;3.90;99.90;;;;;;5005220;28;20476;-76
2023/04/26 03:49:37;;;;;;;11.68;3.15;;;3.60;99.90;;;;;;5001931;28;20433;-75
2023/04/26 03:52:03;;;;;;;7.38;2.80;;;3.60;99.90;;;;;;5000111;28;20424;-76
2023/04/26 03:54:28;;;;;;;7.55;2.00;;;3.50;99.90;;;;;;5002090;28;20437;-78
2023/04/26 03:56:54;;;;;;;5.80;2.07;;;3.60;99.90;;;;;;5007763;28;20420;-77
2023/04/26 03:59:20;;;;;;;6.13;1.83;;;3.60;99.90;;;;;;5005200;28;20443;-75
2023/04/26 04:01:45;;;;;;;4.00;1.90;;;3.80;99.90;;;;;;5002834;28;20794;-76
2023/04/26 04:04:11;;;;;;;3.73;1.30;;;3.80;99.90;;;;;;4999172;28;20436;-76
2023/04/26 04:06:37;;;;;;;6.37;1.87;;;3.90;99.90;;;;;;5004783;28;20823;-75
2023/04/26 04:09:04;;;;;;;6.50;2.03;;;3.90;99.90;;;;;;5001646;28;20436;-76
2023/04/26 04:11:30;;;;;;;6.28;2.00;;;4.00;99.90;;;;;;5007609;28;20428;-75
2023/04/26 04:13:56;;;;;;;6.47;2.03;;;4.00;99.90;;;;;;5011629;28;20445;-77
2023/04/26 04:16:21;;;;;;;7.78;2.10;;;4.00;99.90;;;;;;5006926;28;20468;-77
2023/04/26 04:18:47;;;;;;;14.52;2.08;;;4.10;99.90;;;;;;5000264;28;20477;-77
2023/04/26 04:21:13;;;;;;;6.18;2.03;;;4.20;99.90;;;;;;5002284;28;20416;-78
2023/04/26 04:23:38;;;;;;;9.05;2.05;;;4.10;99.90;;;;;;5006635;28;20439;-77
2023/04/26 04:26:04;;;;;;;6.70;1.90;;;4.00;99.90;;;;;;5007083;28;20425;-78
2023/04/26 04:28:31;;;;;;;12.10;5.47;;;4.00;99.90;;;;;;5003829;28;20436;-76
2023/04/26 04:30:57;;;;;;;7.15;4.50;;;3.90;99.90;;;;;;5006529;28;20802;-78
2023/04/26 04:33:27;;;;;;;10.80;4.63;;;3.80;99.90;;;;;;4993627;28;20450;-75
2023/04/26 04:35:53;;;;;;;6.10;2.25;;;3.80;99.90;;;;;;4996184;28;20432;-75
2023/04/26 04:38:19;;;;;;;6.97;1.90;;;3.70;99.90;;;;;;5002019;28;20544;-73
2023/04/26 04:40:51;;;;;;;6.72;2.47;;;3.70;99.90;;;;;;4993415;28;20754;-76
2023/04/26 04:43:16;;;;;;;12.27;3.50;;;3.70;99.90;;;;;;5004204;28;20504;-75
2023/04/26 04:45:42;;;;;;;11.15;3.10;;;3.50;99.90;;;;;;4997671;28;21022;-76
2023/04/26 04:48:10;;;;;;;6.65;2.03;;;3.60;99.90;;;;;;4987356;28;20430;-76
2023/04/26 04:50:37;;;;;;;6.57;2.38;;;3.60;99.90;;;;;;5000015;28;20429;-76
2023/04/26 04:53:03;;;;;;;7.22;2.35;;;3.40;99.90;;;;;;4995097;28;20437;-76
2023/04/26 04:55:29;;;;;;;7.70;2.23;;;3.70;99.90;;;;;;4997444;28;20434;-75
2023/04/26 04:57:55;;;;;;;5.30;2.60;;;3.90;99.90;;;;;;5003004;28;20436;-75
2023/04/26 05:00:20;;;;;;;6.28;2.97;;;4.00;99.90;;;;;;5002286;28;20432;-74
2023/04/26 05:02:46;;;;;;;6.47;2.45;;;4.10;99.90;;;;;;5000725;28;20456;-74
2023/04/26 05:05:12;;;;;;;4.00;2.30;;;4.20;99.90;;;;;;5010991;28;20429;-75
2023/04/26 05:07:38;;;;;;;7.40;3.23;;;4.10;99.90;;;;;;5001886;28;20428;-74
2023/04/26 05:10:04;;;;;;;5.47;2.50;;;3.90;99.90;;;;;;5001727;28;20440;-71
2023/04/26 05:12:30;;;;;;;8.18;1.98;;;3.80;99.90;;;;;;5005788;28;21000;-74
2023/04/26 05:14:55;;;;;;;5.23;2.10;;;3.50;99.90;;;;;;5006511;28;20514;-74
2023/04/26 05:17:21;;;;;;;5.07;2.30;;;3.70;99.90;;;;;;5001062;28;20495;-74
2023/04/26 05:19:47;;;;;;;8.77;2.37;;;3.50;99.90;;;;;;5014125;28;20436;-73
2023/04/26 05:22:17;;;;;;;5.97;2.47;;;3.80;99.90;;;;;;4997844;28;20774;-73
2023/04/26 05:24:47;;;;;;;6.80;2.40;;;3.90;99.90;;;;;;5005553;28;20432;-73
2023/04/26 05:27:13;;;;;;;4.20;2.23;;;3.80;99.90;;;;;;5006151;28;20885;-73
2023/04/26 05:29:39;;;;;;;8.02;2.90;;;3.70;99.90;;;;;;5007533;28;20430;-74
2023/04/26 05:32:05;;;;;;;6.70;2.70;;;3.70;99.90;;;;;;5009357;28;20425;-74
2023/04/26 05:34:31;;;;;;;6.53;2.92;;;3.70;99.90;;;;;;5006091;28;20836;-74
2023/04/26 05:36:56;;;;;;;10.32;2.95;;;4.00;99.90;;;;;;5019641;28;20431;-73
2023/04/26 05:39:22;;;;;;;7.78;2.88;;;4.10;99.90;;;;;;5005339;28;20429;-73
2023/04/26 05:41:48;;;;;;;6.75;2.55;;;4.30;99.90;;;;;;5002860;28;20913;-73
2023/04/26 05:44:13;;;;;;;5.57;3.35;;;4.30;99.90;;;;;;4990207;28;20864;-73
2023/04/26 05:46:40;;;;;;;7.45;2.33;;;4.30;99.90;;;;;;4992693;28;20432;-72
2023/04/26 05:49:05;;;;;;;8.15;2.80;;;4.30;99.90;;;;;;5008103;28;20424;-73
2023/04/26 05:51:31;;;;;;;10.20;3.50;;;4.40;99.90;;;;;;5020813;28;20434;-73
2023/04/26 05:53:57;;;;;;;10.57;3.77;;;4.60;99.90;;;;;;4992907;28;20437;-73
2023/04/26 05:56:23;;;;;;;8.60;3.80;;;4.60;99.90;;;;;;4994113;28;20469;-73
2023/04/26 05:58:49;;;;;;;9.70;3.00;;;4.70;99.90;;;;;;4987978;28;20428;-73
2023/04/26 06:01:15;;;;;;;8.43;2.97;;;4.70;99.90;;;;;;5006478;28;20416;-72
2023/04/26 06:03:40;;;;;;;11.60;3.37;;;4.80;99.90;;;;;;5012332;28;20442;-74
2023/04/26 06:06:06;;;;;;;6.90;3.00;;;4.80;99.90;;;;;;5014787;28;20428;-74
2023/04/26 06:08:33;;;;;;;9.50;3.17;;;4.90;99.90;;;;;;5003882;28;20525;-74
2023/04/26 06:10:58;;;;;;;9.40;3.50;;;4.80;99.90;;;;;;4998990;28;20429;-74
2023/04/26 06:13:24;;;;;;;6.30;2.73;;;5.00;99.90;;;;;;5007906;28;20437;-74
2023/04/26 06:15:52;;;;;;;5.15;2.50;;;4.90;99.90;;;;;;5014574;28;20434;-73
2023/04/26 06:18:18;;;;;;;7.85;2.78;;;4.90;99.90;;;;;;5007416;28;20437;-74
2023/04/26 06:20:45;;;;;;;6.70;3.10;;;4.90;99.90;;;;;;4991637;28;20453;-74
2023/04/26 06:23:11;;;;;;;9.88;3.58;;;5.10;99.90;;;;;;5017914;28;20571;-74
2023/04/26 06:25:36;;;;;;;7.73;2.70;;;5.80;99.90;;;;;;5010035;28;20495;-72
2023/04/26 06:28:02;;;;;;;6.43;2.77;;;5.90;99.90;;;;;;5021460;28;20435;-75
2023/04/26 06:30:28;;;;;;;9.27;2.45;;;6.00;99.90;;;;;;5008772;28;20420;-75
2023/04/26 06:32:54;;;;;;;10.10;2.78;;;5.90;99.90;;;;;;5008406;28;20785;-73
2023/04/26 06:35:19;;;;;;;7.05;2.55;;;6.30;99.90;;;;;;5005646;28;20639;-73
2023/04/26 06:37:45;;;;;;;6.57;2.08;;;6.30;99.90;;;;;;5006138;28;20794;-73
2023/04/26 06:40:14;;;;;;;7.03;2.22;;;6.40;99.90;;;;;;5008466;28;20425;-73
2023/04/26 06:42:40;;;;;;;7.85;2.65;;;6.60;99.90;;;;;;5007854;28;20416;-73
2023/04/26 06:45:06;;;;;;;8.43;2.67;;;6.90;99.90;;;;;;5007501;28;20434;-73
2023/04/26 06:47:32;;;;;;;7.40;2.00;;;7.10;99.90;;;;;;5013460;28;20510;-73
2023/04/26 06:49:58;;;;;;;6.88;1.90;;;7.20;99.90;;;;;;4996736;28;20501;-75
2023/04/26 06:52:23;;;;;;;13.13;2.58;;;7.70;99.90;;;;;;4987326;28;20882;-74
2023/04/26 06:54:49;;;;;;;8.90;2.15;;;7.30;99.90;;;;;;4988817;28;20419;-74
2023/04/26 06:57:15;;;;;;;6.70;2.00;;;8.10;99.90;;;;;;4998278;28;20544;-74
2023/04/26 06:59:40;;;;;;;6.68;2.08;;;8.30;99.90;;;;;;5007766;28;20448;-74
2023/04/26 07:02:06;;;;;;;8.43;2.20;;;8.70;99.90;;;;;;5008580;28;20408;-74
2023/04/26 07:04:32;;;;;;;7.70;1.90;;;9.60;99.90;;;;;;5008827;28;20424;-74
2023/04/26 07:06:57;;;;;;;6.13;1.73;;;9.60;99.90;;;;;;5007311;28;20468;-75
2023/04/26 07:09:23;;;;;;;11.13;3.10;;;9.50;99.90;;;;;;5000654;28;20446;-74
2023/04/26 07:11:49;;;;;;;5.97;1.40;;;9.30;99.90;;;;;;4988949;28;20834;-74
2023/04/26 07:14:16;;;;;;;5.05;1.60;;;9.20;99.90;;;;;;5003859;28;20521;-74
2023/04/26 07:16:41;;;;;;;7.03;1.40;;;8.90;99.90;;;;;;5000360;28;20432;-75
2023/04/26 07:19:08;;;;;;;6.63;1.50;;;9.70;99.90;;;;;;5006629;28;20448;-74
2023/04/26 07:21:34;;;;;;;7.05;1.85;;;9.30;99.90;;;;;;5020983;28;20436;-75
2023/04/26 07:24:00;;;;;;;6.60;1.42;;;9.30;99.90;;;;;;4995957;28;20434;-74
2023/04/26 07:26:26;;;;;;;5.37;1.47;;;9.30;99.90;;;;;;5002632;28;20447;-74
2023/04/26 07:28:52;;;;;;;5.63;2.17;;;9.30;99.90;;;;;;5009202;28;20459;-75
2023/04/26 07:31:21;;;;;;;5.22;1.60;;;9.10;99.90;;;;;;5002465;28;20547;-74
2023/04/26 07:33:46;;;;;;;5.10;1.60;;;9.10;99.90;;;;;;5006562;28;20468;-74
2023/04/26 07:36:12;;;;;;;5.43;2.10;;;9.20;99.90;;;;;;4996492;28;20427;-75
2023/04/26 07:38:37;;;;;;;8.70;2.37;;;9.20;99.90;;;;;;4992841;28;20453;-75
2023/04/26 07:41:03;;;;;;;7.50;1.57;;;9.10;99.90;;;;;;4994055;28;20427;-74
2023/04/26 07:43:30;;;;;;;8.00;2.03;;;8.80;99.90;;;;;;5006395;28;20437;-76
2023/04/26 07:46:00;;;;;;;7.50;1.77;;;8.40;99.90;;;;;;5000818;28;20426;-75
2023/04/26 07:48:25;;;;;;;6.05;1.70;;;8.30;99.90;;;;;;4989218;28;20422;-75
2023/04/26 07:50:51;;;;;;;9.00;2.20;;;8.70;99.90;;;;;;5004904;28;20487;-75
2023/04/26 07:53:17;;;;;;;6.78;1.83;;;9.00;99.90;;;;;;5004515;28;20717;-74
2023/04/26 07:55:42;;;;;;;7.85;1.20;;;9.40;99.90;;;;;;5005752;28;20424;-74
2023/04/26 07:58:11;;;;;;;7.18;1.65;;;8.80;99.90;;;;;;5000643;28;20457;-75
2023/04/26 08:00:37;;;;;;;6.88;1.58;;;8.50;99.90;;;;;;4997395;28;20544;-75
2023/04/26 08:03:04;;;;;;;5.45;1.48;;;8.80;99.90;;;;;;5013270;28;20429;-74
2023/04/26 08:05:29;;;;;;;7.63;1.83;;;8.90;99.90;;;;;;5008129;28;20431;-76
2023/04/26 08:07:55;;;;;;;8.13;1.98;;;8.70;99.90;;;;;;4989308;28;20917;-74
2023/04/26 08:10:21;;;;;;;8.57;1.80;;;8.90;99.90;;;;;;5006166;28;20510;-75
2023/04/26 08:12:47;;;;;;;5.28;1.70;;;8.80;99.90;;;;;;5007353;28;20544;-75
2023/04/26 08:15:12;;;;;;;7.45;1.48;;;8.60;99.90;;;;;;5004822;28;20428;-73
2023/04/26 08:17:38;;;;;;;6.32;1.42;;;9.10;99.90;;;;;;5008185;28;20409;-74
2023/04/26 08:20:04;;;;;;;6.18;1.52;;;9.20;99.90;;;;;;5006693;28;20451;-74
2023/04/26 08:22:30;;;;;;;10.33;2.87;;;9.60;99.90;;;;;;4999021;28;20432;-73
2023/04/26 08:24:56;;;;;;;6.53;2.00;;;9.60;99.90;;;;;;5003723;28;20427;-73
2023/04/26 08:27:22;;;;;;;4.67;1.30;;;9.10;99.90;;;;;;4995927;28;20493;-74
2023/04/26 08:29:48;;;;;;;8.18;1.30;;;8.80;99.90;;;;;;4994586;28;20807;-74
2023/04/26 08:32:13;;;;;;;9.20;2.10;;;8.30;99.90;;;;;;5008576;28;20862;-74
2023/04/26 08:34:39;;;;;;;8.90;2.20;;;8.40;99.90;;;;;;5012602;28;20441;-75
2023/04/26 08:37:09;;;;;;;8.48;1.80;;;8.40;99.90;;;;;;5016864;28;20434;-74
2023/04/26 08:39:34;;;;;;;5.22;1.67;;;8.50;99.90;;;;;;5007555;28;20899;-73
2023/04/26 08:42:11;;;;;;;7.68;1.88;;;8.40;99.90;;;;;;4985098;28;20467;-74
2023/04/26 08:44:43;;;;;;;6.63;1.45;;;8.00;99.90;;;;;;5007355;28;20550;-74
2023/04/26 08:47:13;;;;;;;6.68;2.03;;;7.80;99.90;;;;;;5002460;28;20423;-73
2023/04/26 08:49:46;;;;;;;7.65;2.28;;;7.90;99.90;;;;;;4998202;28;20463;-73
2023/04/26 08:52:13;;;;;;;6.55;1.85;;;7.80;99.90;;;;;;5004358;28;20551;-73
2023/04/26 08:54:40;;;;;;;8.15;1.88;;;7.70;99.90;;;;;;5005262;28;20966;-73
2023/04/26 08:57:07;;;;;;;5.93;1.50;;;7.70;99.90;;;;;;4985760;28;20519;-73
2023/04/26 08:59:36;;;;;;;6.95;1.58;;;7.80;99.90;;;;;;4992255;28;20903;-73
2023/04/26 09:02:03;;;;;;;10.68;2.08;;;8.00;99.90;;;;;;5003424;28;20424;-75
2023/04/26 09:04:30;;;;;;;7.45;1.92;;;8.10;99.90;;;;;;4995808;28;20428;-74
2023/04/26 09:06:59;;;;;;;10.55;2.25;;;8.30;99.90;;;;;;4991463;28;20453;-74
2023/04/26 09:09:27;;;;;;;6.20;2.37;;;8.50;99.90;;;;;;4992559;28;20468;-74
2023/04/26 09:11:58;;;;;;;5.10;1.65;;;8.60;99.90;;;;;;5007568;28;20428;-74
2023/04/26 09:14:25;;;;;;;7.05;2.00;;;8.40;99.90;;;;;;5021671;28;20436;-74
2023/04/26 09:16:52;;;;;;;7.97;1.90;;;8.30;99.90;;;;;;5003232;28;20428;-75
2023/04/26 09:19:33;;;;;;;6.38;1.58;;;8.20;99.90;;;;;;5005559;28;21278;-73
2023/04/26 09:21:59;;;;;;;5.18;2.20;;;8.50;99.90;;;;;;4994725;28;20424;-74
2023/04/26 09:24:25;;;;;;;7.63;2.00;;;8.50;99.90;;;;;;5004388;28;20433;-74
2023/04/26 09:27:03;;;;;;;7.13;1.80;;;8.20;99.90;;;;;;5006964;28;20428;-74
2023/04/26 09:29:28;;;;;;;3.90;2.38;;;8.20;99.90;;;;;;5001770;28;20433;-75
2023/04/26 09:31:54;;;;;;;7.07;2.05;;;8.30;99.90;;;;;;5006252;28;20437;-73
2023/04/26 09:34:20;;;;;;;10.48;2.90;;;7.90;99.90;;;;;;5005161;28;20933;-73
2023/04/26 09:36:45;;;;;;;8.18;2.47;;;7.80;99.90;;;;;;4991733;28;20461;-73
2023/04/26 09:39:12;;;;;;;9.02;2.35;;;7.80;99.90;;;;;;5004151;28;20536;-73
2023/04/26 09:41:44;;;;;;;7.28;2.20;;;7.90;99.90;;;;;;5004470;28;20467;-73
2023/04/26 09:44:23;;;;;;;10.50;2.33;;;8.10;99.90;;;;;;5004754;28;20819;-74
2023/04/26 09:47:05;;;;;;;5.05;1.80;;;8.20;99.90;;;;;;5006005;28;20428;-73
2023/04/26 09:49:42;;;;;;;7.72;2.40;;;8.50;99.90;;;;;;5010889;28;20440;-73
2023/04/26 09:52:08;;;;;;;8.57;3.00;;;8.80;99.90;;;;;;5007722;28;20432;-74
2023/04/26 09:54:48;;;;;;;11.83;2.60;;;8.80;99.90;;;;;;5008938;28;20874;-73
2023/04/26 09:57:16;;;;;;;8.02;2.47;;;8.80;99.90;;;;;;5008563;28;20430;-75
2023/04/26 09:59:43;;;;;;;8.68;2.30;;;9.00;99.90;;;;;;5010136;28;20412;-74
2023/04/26 10:02:21;;;;;;;9.43;2.70;;;9.20;99.90;;;;;;5008897;28;20429;-74
2023/04/26 10:04:52;;;;;;;8.70;2.03;;;9.40;99.90;;;;;;5009923;28;20413;-73
2023/04/26 10:07:21;;;;;;;7.28;2.42;;;9.50;99.90;;;;;;4996925;28;20934;-74
2023/04/26 10:09:48;;;;;;;7.30;2.10;;;9.60;99.90;;;;;;4989130;28;20430;-74
2023/04/26 10:12:16;;;;;;;9.40;2.45;;;10.10;99.90;;;;;;5001901;28;20417;-74
2023/04/26 10:14:43;;;;;;;6.75;1.85;;;10.10;99.90;;;;;;5008997;28;20463;-73
2023/04/26 10:17:10;;;;;;;12.07;3.05;;;10.10;99.90;;;;;;5008627;28;20743;-75
2023/04/26 10:19:37;;;;;;;8.60;2.80;;;9.70;99.90;;;;;;5008954;28;20812;-75
2023/04/26 10:22:15;;;;;;;7.27;2.27;;;10.00;99.90;;;;;;5004518;28;21052;-74
2023/04/26 10:24:43;;;;;;;9.77;2.27;;;10.20;99.90;;;;;;5009939;28;20451;-75
2023/04/26 10:27:08;;;;;;;5.43;1.92;;;10.20;99.90;;;;;;5008814;28;20488;-75
2023/04/26 10:29:53;;;;;;;6.60;2.50;;;10.20;99.90;;;;;;5008933;28;20525;-74
2023/04/26 10:32:19;;;;;;;6.40;2.17;;;10.00;99.90;;;;;;5008259;28;20466;-74
2023/04/26 10:35:10;;;;;;;4.85;1.95;;;10.10;99.90;;;;;;5008172;28;20551;-74
2023/04/26 10:37:36;;;;;;;7.13;2.45;;;10.10;99.90;;;;;;5007659;28;20508;-74
2023/04/26 10:40:26;;;;;;;7.25;2.53;;;9.50;99.90;;;;;;5008112;28;20474;-74
2023/04/26 10:43:14;;;;;;;5.18;1.73;;;9.10;99.90;;;;;;5008547;28;20405;-74
2023/04/26 10:45:47;;;;;;;9.15;1.85;;;8.80;99.90;;;;;;5007642;28;20429;-75
2023/04/26 10:48:20;;;;;;;8.15;2.20;;;7.80;99.90;;;;;;5008210;28;20565;-73
2023/04/26 10:51:00;;;;;;;7.00;2.22;;;7.70;99.90;;;;;;5007608;28;20412;-73
2023/04/26 10:53:46;;;;;;;4.63;2.08;;;8.00;99.90;;;;;;5008797;28;20447;-73
2023/04/26 10:56:27;;;;;;;11.32;3.25;;;8.20;99.90;;;;;;5000504;28;20504;-73
2023/04/26 10:59:12;;;;;;;7.20;2.08;;;8.40;99.90;;;;;;5006919;28;20909;-73
2023/04/26 11:01:39;;;;;;;6.22;1.85;;;8.70;99.90;;;;;;5007169;28;20435;-74
2023/04/26 11:04:11;;;;;;;13.60;2.90;;;9.00;99.90;;;;;;5007418;28;20501;-74
2023/04/26 11:06:53;;;;;;;9.20;2.72;;;9.30;99.90;;;;;;5005688;28;20429;-74
2023/04/26 11:09:35;;;;;;;6.50;2.20;;;9.30;99.90;;;;;;5007213;28;20504;-73
2023/04/26 11:12:06;;;;;;;9.00;1.98;;;9.20;99.90;;;;;;5006000;28;20424;-74
2023/04/26 11:14:36;;;;;;;9.43;2.55;;;9.40;99.90;;;;;;5007427;28;21008;-74
2023/04/26 11:17:05;;;;;;;7.85;2.45;;;9.70;99.90;;;;;;5006458;28;20416;-74
2023/04/26 11:19:31;;;;;;;7.90;2.17;;;9.80;99.90;;;;;;5007317;28;20425;-74
2023/04/26 11:22:01;;;;;;;8.00;2.50;;;9.80;99.90;;;;;;5006825;28;20496;-75
2023/04/26 11:24:31;;;;;;;9.73;2.17;;;10.00;99.90;;;;;;5007476;28;20416;-75
2023/04/26 11:26:58;;;;;;;9.75;2.90;;;9.80;99.90;;;;;;5007518;28;20458;-77
2023/04/26 11:29:24;;;;;;;6.57;2.00;;;9.50;99.90;;;;;;5006964;28;20765;-76
2023/04/26 11:31:54;;;;;;;6.97;2.75;;;9.00;99.90;;;;;;5006295;28;20515;-74
2023/04/26 11:34:30;;;;;;;8.70;2.47;;;8.50;99.90;;;;;;5005470;28;20436;-74
2023/04/26 11:36:56;;;;;;;7.05;2.42;;;8.50;99.90;;;;;;5005974;28;20840;-73
2023/04/26 11:39:21;;;;;;;10.93;2.90;;;8.20;99.90;;;;;;5007367;28;20520;-74
2023/04/26 11:41:48;;;;;;;8.52;2.90;;;8.30;99.90;;;;;;5006014;28;20432;-74
2023/04/26 11:44:20;;;;;;;5.15;2.22;;;8.00;99.90;;;;;;5002847;28;20436;-76
2023/04/26 11:46:49;;;;;;;7.70;2.83;;;7.90;99.90;;;;;;5003144;28;20439;-75
2023/04/26 11:49:16;;;;;;;6.20;2.70;;;8.10;99.90;;;;;;5005185;28;20431;-77
2023/04/26 11:51:47;;;;;;;7.88;2.80;;;8.40;99.90;;;;;;5005972;28;20488;-75
2023/04/26 11:54:29;;;;;;;7.47;3.10;;;8.50;99.90;;;;;;5010370;28;20430;-75
2023/04/26 11:56:56;;;;;;;10.10;2.55;;;8.50;99.90;;;;;;5005056;28;20417;-75
2023/04/26 11:59:29;;;;;;;9.70;2.38;;;8.20;99.90;;;;;;5006110;28;20492;-74
2023/04/26 12:01:57;;;;;;;8.05;2.78;;;8.40;99.90;;;;;;5003278;28;20426;-74
2023/04/26 12:04:30;;;;;;;9.40;2.90;;;8.40;99.90;;;;;;5014569;28;20434;-76
2023/04/26 12:06:56;;;;;;;9.80;2.83;;;8.20;99.90;;;;;;5018861;28;20933;-75
2023/04/26 12:09:23;;;;;;;7.38;2.20;;;8.30;99.90;;;;;;5007508;28;20721;-74
2023/04/26 12:12:05;;;;;;;5.88;2.38;;;8.30;99.90;;;;;;4997469;28;20496;-75
2023/04/26 12:14:38;;;;;;;9.32;3.33;;;8.30;99.90;;;;;;5006484;28;20465;-75
2023/04/26 12:17:05;;;;;;;7.57;2.83;;;8.60;99.90;;;;;;5017474;28;20803;-74
2023/04/26 12:19:38;;;;;;;6.82;2.65;;;8.60;99.90;;;;;;5012427;28;20909;-74
2023/04/26 12:22:05;;;;;;;6.10;2.42;;;8.80;99.90;;;;;;5024124;28;20737;-74
2023/04/26 12:24:33;;;;;;;6.28;2.20;;;8.90;99.90;;;;;;5024332;28;20481;-74
2023/04/26 12:26:59;;;;;;;5.43;2.50;;;8.80;99.90;;;;;;5015035;28;20483;-75
2023/04/26 12:29:29;;;;;;;6.68;2.58;;;8.90;99.90;;;;;;5014333;28;20438;-76
2023/04/26 12:31:55;;;;;;;8.50;2.45;;;9.20;99.90;;;;;;5024374;28;20503;-75
2023/04/26 12:34:21;;;;;;;7.50;2.70;;;9.20;99.90;;;;;;5005068;28;20478;-74
2023/04/26 12:36:47;;;;;;;6.80;2.47;;;9.40;99.90;;;;;;5008803;28;20443;-75
2023/04/26 12:39:14;;;;;;;6.82;2.58;;;9.60;99.90;;;;;;5012945;28;20702;-74
2023/04/26 12:41:40;;;;;;;6.75;2.95;;;9.80;99.90;;;;;;5014145;28;20438;-73
2023/04/26 12:44:07;;;;;;;5.47;2.05;;;10.00;99.90;;;;;;5006591;28;20428;-77
2023/04/26 12:46:33;;;;;;;6.18;1.83;;;10.00;99.90;;;;;;5007276;28;20393;-75
2023/04/26 12:48:59;;;;;;;4.78;1.70;;;10.10;99.90;;;;;;5004626;28;20437;-74
2023/04/26 12:51:25;;;;;;;6.43;2.00;;;10.30;99.90;;;;;;5010180;28;20777;-75
2023/04/26 12:53:51;;;;;;;6.65;1.67;;;10.40;99.90;;;;;;5006783;28;20420;-75
2023/04/26 12:56:17;;;;;;;5.28;1.40;;;10.40;99.90;;;;;;5006993;28;21800;-76